createdAt,value
2023-02-11T00:03:37.527Z,6.13
2023-02-11T00:08:41.265Z,4.97
2023-02-11T00:13:45.772Z,5.07
2023-02-11T00:18:51.471Z,4.80
2023-02-11T00:23:57.198Z,5.00
2023-02-11T00:29:00.945Z,4.40
2023-02-11T00:34:03.573Z,5.07
2023-02-11T00:39:07.700Z,5.53
2023-02-11T00:44:11.512Z,5.93
2023-02-11T00:49:16.097Z,4.60
2023-02-11T00:54:18.754Z,5.60
2023-02-11T00:59:21.324Z,3.75
2023-02-11T01:04:24.021Z,5.75
2023-02-11T01:09:27.774Z,4.18
2023-02-11T01:14:30.523Z,5.93
2023-02-11T01:19:33.353Z,5.40
2023-02-11T01:24:36.010Z,5.32
2023-02-11T01:29:38.744Z,4.30
2023-02-11T01:34:41.322Z,5.07
2023-02-11T01:39:43.953Z,3.50
2023-02-11T01:44:51.683Z,3.95
2023-02-11T01:49:59.331Z,5.07
2023-02-11T01:55:30.716Z,4.43
2023-02-11T02:00:37.970Z,5.80
2023-02-11T02:05:49.526Z,4.60
2023-02-11T02:10:56.633Z,5.15
2023-02-11T02:16:01.961Z,4.10
2023-02-11T02:32:21.269Z,4.72
2023-02-11T02:37:35.082Z,4.10
2023-02-11T02:42:40.540Z,3.75
2023-02-11T02:47:43.254Z,3.97
2023-02-11T02:58:34.102Z,5.25
2023-02-11T03:04:00.014Z,4.30
2023-02-11T03:09:11.570Z,4.68
2023-02-11T03:14:17.500Z,4.47
2023-02-11T03:19:26.908Z,3.83
2023-02-11T03:24:35.256Z,3.88
2023-02-11T03:40:49.028Z,2.05
2023-02-11T03:45:54.327Z,4.30
2023-02-11T03:50:59.970Z,3.85
2023-02-11T03:56:06.916Z,3.20
2023-02-11T04:01:10.223Z,3.03
2023-02-11T04:06:13.032Z,2.55
2023-02-11T04:11:15.585Z,2.95
2023-02-11T04:16:18.210Z,2.60
2023-02-11T04:21:20.915Z,2.88
2023-02-11T04:26:23.501Z,1.95
2023-02-11T04:31:26.170Z,2.38
2023-02-11T04:36:28.833Z,2.58
2023-02-11T04:41:31.417Z,4.03
2023-02-11T04:46:34.176Z,3.42
2023-02-11T04:51:36.835Z,4.15
2023-02-11T04:56:39.800Z,3.92
2023-02-11T05:01:42.618Z,2.10
2023-02-11T05:06:45.381Z,2.92
2023-02-11T05:11:48.173Z,3.30
2023-02-11T05:16:50.776Z,2.80
2023-02-11T05:22:02.531Z,2.65
2023-02-11T05:27:05.767Z,2.83
2023-02-11T05:32:11.273Z,3.15
2023-02-11T05:37:16.486Z,1.48
2023-02-11T05:42:19.302Z,1.92
2023-02-11T05:47:23.505Z,3.40
2023-02-11T05:52:26.339Z,3.10
2023-02-11T05:57:29.044Z,4.03
2023-02-11T06:02:31.790Z,3.88
2023-02-11T06:07:34.683Z,3.45
2023-02-11T06:12:38.717Z,3.20
2023-02-11T06:17:41.370Z,3.25
2023-02-11T06:22:44.386Z,3.38
2023-02-11T06:27:47.088Z,3.35
2023-02-11T06:32:49.843Z,4.85
2023-02-11T06:37:54.046Z,4.25
2023-02-11T06:42:56.660Z,3.38
2023-02-11T06:47:59.507Z,4.53
2023-02-11T06:53:02.828Z,3.83
2023-02-11T06:58:05.461Z,4.68
2023-02-11T07:03:08.797Z,3.53
2023-02-11T07:08:11.981Z,3.08
2023-02-11T07:13:14.988Z,4.22
2023-02-11T07:18:17.672Z,4.07
2023-02-11T07:23:20.341Z,4.93
2023-02-11T07:28:23.117Z,4.30
2023-02-11T07:33:26.793Z,3.63
2023-02-11T07:38:30.082Z,2.78
2023-02-11T07:43:33.539Z,2.90
2023-02-11T07:48:36.773Z,2.45
2023-02-11T07:53:40.871Z,3.95
2023-02-11T07:58:43.861Z,4.05
2023-02-11T08:03:46.511Z,4.28
2023-02-11T08:08:49.682Z,3.78
2023-02-11T08:13:53.810Z,4.05
2023-02-11T08:18:59.246Z,4.00
2023-02-11T08:24:03.881Z,4.97
2023-02-11T08:29:11.454Z,4.88
2023-02-11T08:34:18.411Z,4.55
2023-02-11T08:39:22.820Z,3.95
2023-02-11T08:44:25.750Z,3.70
2023-02-11T08:49:28.368Z,5.40
2023-02-11T08:54:33.036Z,5.05
